createdAt,value
2022-12-06T00:01:20.637Z,76.80
2022-12-06T00:03:52.664Z,77.60
2022-12-06T00:06:22.512Z,76.50
2022-12-06T00:08:51.873Z,77.47
2022-12-06T00:11:22.085Z,79.87
2022-12-06T00:13:54.203Z,79.10
2022-12-06T00:16:24.836Z,78.17
2022-12-06T00:18:53.715Z,77.47
2022-12-06T00:21:24.327Z,76.60
2022-12-06T00:23:54.038Z,74.87
2022-12-06T00:26:23.063Z,74.70
2022-12-06T00:28:54.285Z,76.90
2022-12-06T00:31:26.399Z,78.70
2022-12-06T00:33:55.758Z,76.70
2022-12-06T00:36:26.911Z,80.20
2022-12-06T00:38:55.725Z,81.40
2022-12-06T00:41:25.301Z,79.47
2022-12-06T00:43:54.517Z,83.10
2022-12-06T00:46:26.957Z,77.37
2022-12-06T00:48:56.528Z,82.70
2022-12-06T00:51:26.246Z,79.23
2022-12-06T00:53:55.370Z,81.27
2022-12-06T00:56:24.672Z,80.80
2022-12-06T00:58:52.960Z,78.80
2022-12-06T01:01:24.167Z,80.63
2022-12-06T01:03:54.407Z,79.87
2022-12-06T01:06:26.104Z,83.23
2022-12-06T01:08:55.059Z,81.27
2022-12-06T01:11:24.448Z,82.57
2022-12-06T01:13:53.106Z,83.57
2022-12-06T01:16:25.128Z,84.17
2022-12-06T01:18:54.819Z,84.50
2022-12-06T01:21:23.650Z,86.00
2022-12-06T01:23:54.276Z,87.40
2022-12-06T01:26:25.026Z,85.90
2022-12-06T01:28:53.381Z,86.13
2022-12-06T01:31:23.658Z,87.70
2022-12-06T01:33:51.854Z,86.07
2022-12-06T01:36:21.080Z,86.43
2022-12-06T01:38:52.868Z,87.03
2022-12-06T01:41:22.023Z,85.90
2022-12-06T01:43:50.775Z,87.13
2022-12-06T01:46:29.244Z,85.00
2022-12-06T01:49:03.625Z,88.43
2022-12-06T01:51:32.169Z,87.27
2022-12-06T01:54:01.418Z,88.90
2022-12-06T01:56:29.726Z,89.87
2022-12-06T01:59:00.068Z,90.27
2022-12-06T02:01:31.881Z,89.30
2022-12-06T02:04:02.165Z,93.53
2022-12-06T02:06:31.902Z,87.87
2022-12-06T02:09:01.984Z,88.33
2022-12-06T02:11:34.989Z,86.70
2022-12-06T02:14:06.268Z,84.80
2022-12-06T02:16:47.004Z,88.37
2022-12-06T02:19:44.300Z,87.50
2022-12-06T02:22:23.123Z,85.90
2022-12-06T02:25:31.507Z,83.37
2022-12-06T02:28:23.198Z,86.00
2022-12-06T02:30:56.726Z,86.27
2022-12-06T02:33:29.626Z,84.53
2022-12-06T02:36:04.896Z,86.60
2022-12-06T02:38:36.242Z,82.90
2022-12-06T02:41:10.151Z,84.23
2022-12-06T02:43:43.037Z,84.60
2022-12-06T02:46:15.886Z,86.80
2022-12-06T02:48:45.923Z,86.20
2022-12-06T02:51:18.167Z,83.97
2022-12-06T02:53:49.649Z,84.37
2022-12-06T02:56:19.439Z,88.43
2022-12-06T02:58:48.280Z,86.60
2022-12-06T03:01:21.430Z,85.60
2022-12-06T03:04:00.000Z,86.37
2022-12-06T03:06:49.837Z,82.67
2022-12-06T03:09:36.239Z,83.30
2022-12-06T03:12:09.452Z,85.43
2022-12-06T03:14:44.604Z,81.97
2022-12-06T03:17:20.331Z,84.70
2022-12-06T03:19:55.512Z,83.73
2022-12-06T03:22:29.313Z,80.70
2022-12-06T03:24:58.939Z,79.90
2022-12-06T03:27:28.417Z,83.43
2022-12-06T03:30:00.734Z,82.63
2022-12-06T03:32:34.490Z,83.83
2022-12-06T03:35:06.988Z,85.33
2022-12-06T03:37:37.956Z,84.20
2022-12-06T03:40:11.706Z,84.50
2022-12-06T03:42:40.628Z,85.20
2022-12-06T03:45:12.027Z,84.97
2022-12-06T03:47:49.981Z,87.90
2022-12-06T03:50:23.536Z,88.73
2022-12-06T03:52:52.680Z,86.70
2022-12-06T03:55:21.213Z,87.37
2022-12-06T03:57:49.305Z,86.40
2022-12-06T04:00:17.994Z,89.23
2022-12-06T04:02:47.501Z,90.43
2022-12-06T04:05:15.994Z,86.57
2022-12-06T04:07:44.073Z,82.23
2022-12-06T04:10:12.753Z,84.00
2022-12-06T04:12:58.423Z,85.33
2022-12-06T04:15:26.508Z,85.60
2022-12-06T04:18:13.739Z,89.03
2022-12-06T04:21:01.293Z,86.90
2022-12-06T04:23:30.115Z,83.90
2022-12-06T04:25:58.269Z,82.70
2022-12-06T04:28:44.003Z,86.40
2022-12-06T04:31:29.869Z,83.53
2022-12-06T04:34:16.706Z,83.67
2022-12-06T04:37:02.819Z,86.33
2022-12-06T04:39:31.360Z,82.50
2022-12-06T04:42:17.184Z,82.40
2022-12-06T04:44:45.592Z,83.87
2022-12-06T04:47:14.081Z,83.43
2022-12-06T04:49:43.613Z,86.37
2022-12-06T04:52:12.264Z,86.37
2022-12-06T04:54:40.610Z,81.27
2022-12-06T04:57:11.010Z,83.93
2022-12-06T04:59:40.338Z,81.70
2022-12-06T05:02:10.919Z,83.73
2022-12-06T05:04:39.148Z,80.70
2022-12-06T05:07:11.705Z,87.07
2022-12-06T05:09:40.315Z,81.30
2022-12-06T05:12:08.963Z,80.23
2022-12-06T05:14:37.202Z,79.87
2022-12-06T05:17:05.411Z,81.23
2022-12-06T05:19:33.608Z,79.50
2022-12-06T05:22:01.675Z,80.10
2022-12-06T05:24:31.312Z,78.23
2022-12-06T05:26:59.387Z,76.43
2022-12-06T05:29:27.688Z,78.57
2022-12-06T05:31:55.923Z,76.23
2022-12-06T05:34:24.885Z,76.03
2022-12-06T05:36:53.081Z,78.03
2022-12-06T05:39:21.162Z,79.50
2022-12-06T05:41:50.706Z,78.97
2022-12-06T05:44:19.034Z,77.30
2022-12-06T05:46:47.177Z,78.23
2022-12-06T05:49:15.352Z,78.07
2022-12-06T05:51:44.366Z,80.17
2022-12-06T05:54:12.540Z,78.83
2022-12-06T05:56:40.971Z,82.70
2022-12-06T05:59:10.502Z,77.03
2022-12-06T06:01:38.984Z,78.23
2022-12-06T06:04:07.172Z,78.90
2022-12-06T06:06:35.501Z,77.90
2022-12-06T06:09:03.838Z,74.17
2022-12-06T06:11:32.022Z,77.73
2022-12-06T06:14:00.179Z,73.20
2022-12-06T06:16:30.258Z,71.77
2022-12-06T06:18:58.403Z,78.17
2022-12-06T06:21:26.511Z,76.33
2022-12-06T06:23:54.700Z,75.17
2022-12-06T06:26:23.014Z,74.83
2022-12-06T06:28:51.245Z,73.87
2022-12-06T06:31:19.393Z,71.03
2022-12-06T06:33:49.088Z,73.00
2022-12-06T06:36:17.374Z,73.47
2022-12-06T06:38:45.639Z,74.03
2022-12-06T06:41:13.733Z,76.73
2022-12-06T06:43:41.891Z,75.63
2022-12-06T06:46:10.942Z,75.43
2022-12-06T06:48:40.475Z,77.00
2022-12-06T06:51:12.525Z,76.10
2022-12-06T06:53:41.014Z,77.23
2022-12-06T06:56:09.861Z,76.17
2022-12-06T06:58:38.047Z,76.30
2022-12-06T07:01:08.910Z,79.75
2022-12-06T07:03:37.267Z,75.17
2022-12-06T07:06:10.554Z,76.57
2022-12-06T07:08:40.162Z,75.50
2022-12-06T07:11:08.946Z,76.63
2022-12-06T07:13:38.138Z,80.33
2022-12-06T07:16:08.164Z,76.03
2022-12-06T07:18:36.639Z,74.80
2022-12-06T07:21:06.893Z,83.33
2022-12-06T07:23:37.766Z,76.80
2022-12-06T07:26:07.632Z,75.97
2022-12-06T07:28:37.033Z,76.60
2022-12-06T07:31:12.415Z,77.10
2022-12-06T07:33:41.596Z,75.07
2022-12-06T07:36:12.629Z,74.30
2022-12-06T07:38:43.665Z,74.93
2022-12-06T07:41:31.213Z,72.90
2022-12-06T07:44:19.371Z,73.23
2022-12-06T07:46:48.323Z,70.40
2022-12-06T07:49:17.707Z,68.97
2022-12-06T07:51:46.646Z,69.77
2022-12-06T07:54:17.361Z,72.80
2022-12-06T07:56:45.846Z,72.60
2022-12-06T07:59:14.297Z,70.83
2022-12-06T08:01:42.693Z,68.67
2022-12-06T08:04:10.884Z,71.30
2022-12-06T08:06:39.173Z,72.23
2022-12-06T08:09:07.774Z,76.00
2022-12-06T08:11:37.679Z,80.37
2022-12-06T08:14:06.357Z,73.20
2022-12-06T08:16:34.557Z,76.60
2022-12-06T08:19:02.790Z,80.33
2022-12-06T08:21:30.991Z,81.27
2022-12-06T08:23:59.263Z,80.70
2022-12-06T08:26:27.489Z,84.13
2022-12-06T08:28:56.935Z,87.37
2022-12-06T08:31:25.595Z,87.90
2022-12-06T08:33:53.997Z,87.60
2022-12-06T08:36:23.846Z,89.37
2022-12-06T08:38:53.121Z,88.70
2022-12-06T08:41:40.296Z,88.93
2022-12-06T08:44:13.779Z,89.70
2022-12-06T08:46:41.891Z,89.17
2022-12-06T08:49:11.060Z,87.43
2022-12-06T08:51:39.532Z,93.43
2022-12-06T08:54:08.956Z,97.70
2022-12-06T08:56:38.288Z,95.63
2022-12-06T08:59:07.048Z,96.27
2022-12-06T09:01:38.426Z,97.17
2022-12-06T09:04:08.463Z,96.57
2022-12-06T09:06:39.322Z,96.50
2022-12-06T09:09:08.854Z,100.00
2022-12-06T09:11:37.325Z,102.27
2022-12-06T09:14:05.702Z,102.27
2022-12-06T09:16:33.974Z,101.60
2022-12-06T09:19:03.778Z,100.47
2022-12-06T09:21:33.602Z,103.50
2022-12-06T09:24:01.805Z,103.40
2022-12-06T09:26:30.148Z,103.80
2022-12-06T09:28:59.501Z,103.33
2022-12-06T09:31:27.935Z,99.83
2022-12-06T09:33:56.709Z,100.33
2022-12-06T09:36:28.044Z,99.53
2022-12-06T09:39:01.278Z,104.00
2022-12-06T09:41:54.626Z,102.67
2022-12-06T09:44:36.357Z,99.10
2022-12-06T09:47:17.837Z,103.57
2022-12-06T09:49:53.429Z,105.57
2022-12-06T09:52:47.924Z,103.40
2022-12-06T09:55:29.398Z,97.10
2022-12-06T09:58:05.003Z,99.77
2022-12-06T10:00:41.861Z,101.03
2022-12-06T10:03:35.073Z,107.57
2022-12-06T10:06:05.614Z,106.07
2022-12-06T10:09:04.420Z,108.00
2022-12-06T10:11:47.400Z,106.50
2022-12-06T10:14:31.821Z,109.10
2022-12-06T10:17:09.444Z,104.80
2022-12-06T10:19:54.462Z,108.23
2022-12-06T10:22:31.288Z,107.20
2022-12-06T10:25:09.246Z,108.50
2022-12-06T10:27:39.649Z,105.10
2022-12-06T10:30:10.788Z,109.63
2022-12-06T10:32:53.500Z,110.60
2022-12-06T10:35:40.853Z,107.20
2022-12-06T10:38:20.316Z,98.33
2022-12-06T10:41:01.300Z,99.13
2022-12-06T10:43:34.975Z,111.70
2022-12-06T10:46:27.022Z,115.53
2022-12-06T10:49:03.935Z,99.43
2022-12-06T10:51:38.350Z,97.67
2022-12-06T10:54:17.751Z,99.97
2022-12-06T10:56:50.230Z,103.37
2022-12-06T10:59:35.563Z,101.40
2022-12-06T11:02:21.304Z,101.67
2022-12-06T11:04:50.981Z,97.90
2022-12-06T11:07:23.824Z,91.80
2022-12-06T11:09:54.685Z,84.10
2022-12-06T11:12:31.413Z,82.13
2022-12-06T11:15:05.571Z,80.90
2022-12-06T11:17:38.261Z,65.00
2022-12-06T11:20:16.793Z,63.67
2022-12-06T11:22:54.522Z,63.97
2022-12-06T11:25:28.588Z,58.43
2022-12-06T11:28:06.436Z,51.60
2022-12-06T11:30:35.108Z,46.13
2022-12-06T11:33:04.638Z,43.10
2022-12-06T11:35:33.515Z,40.30
2022-12-06T11:38:03.530Z,39.37
2022-12-06T11:40:34.178Z,35.20
2022-12-06T11:43:06.906Z,33.10
2022-12-06T11:45:39.026Z,31.20
2022-12-06T11:48:14.971Z,31.60
2022-12-06T11:50:44.824Z,30.77
2022-12-06T11:53:21.308Z,29.57
2022-12-06T11:55:53.165Z,27.77
2022-12-06T11:58:28.093Z,27.97
2022-12-06T12:00:59.297Z,25.77
2022-12-06T12:03:29.931Z,24.43
2022-12-06T12:06:18.268Z,23.70
2022-12-06T12:08:56.612Z,23.47
2022-12-06T12:11:27.799Z,22.83
2022-12-06T12:14:00.531Z,22.70
2022-12-06T12:16:33.966Z,20.77
2022-12-06T12:19:05.217Z,21.03
2022-12-06T12:21:37.412Z,20.17
2022-12-06T12:24:07.468Z,20.47
2022-12-06T12:26:38.558Z,19.60
2022-12-06T12:29:16.537Z,19.83
2022-12-06T12:31:53.770Z,20.03
2022-12-06T12:34:24.217Z,19.47
2022-12-06T12:36:54.782Z,19.60
2022-12-06T12:39:32.515Z,19.67
2022-12-06T12:42:01.894Z,19.90
2022-12-06T12:44:38.151Z,19.77
2022-12-06T12:47:17.758Z,19.27
2022-12-06T12:50:02.063Z,19.67
2022-12-06T12:52:32.330Z,20.30
2022-12-06T12:55:03.141Z,19.10
2022-12-06T12:57:31.591Z,19.57
2022-12-06T13:00:01.558Z,19.77
2022-12-06T13:02:32.037Z,20.37
2022-12-06T13:05:31.105Z,20.53
2022-12-06T13:07:56.417Z,20.53
2022-12-06T13:10:31.765Z,21.17
2022-12-06T13:13:02.833Z,20.57
2022-12-06T13:15:36.810Z,20.90
2022-12-06T13:18:12.465Z,19.97
2022-12-06T13:20:42.056Z,20.43
2022-12-06T13:23:14.643Z,20.67
2022-12-06T13:25:48.493Z,20.57
2022-12-06T13:28:20.353Z,20.63
2022-12-06T13:30:55.830Z,20.30
2022-12-06T13:33:26.847Z,20.67
2022-12-06T13:35:59.325Z,21.30
2022-12-06T13:38:33.359Z,21.30
2022-12-06T13:41:02.401Z,21.40
2022-12-06T13:43:57.898Z,20.63
2022-12-06T13:46:33.259Z,20.70
2022-12-06T13:49:04.015Z,20.73
2022-12-06T13:51:46.821Z,20.13
2022-12-06T13:54:42.116Z,19.90
2022-12-06T13:57:31.812Z,20.10
2022-12-06T14:00:00.367Z,21.27
2022-12-06T14:02:46.514Z,20.93
2022-12-06T14:08:19.116Z,21.67
2022-12-06T14:10:47.967Z,21.67
2022-12-06T14:13:21.667Z,21.37
2022-12-06T14:15:51.941Z,21.50
2022-12-06T14:18:24.800Z,23.10
2022-12-06T14:20:55.244Z,21.77
2022-12-06T14:23:31.527Z,22.17
2022-12-06T14:26:13.756Z,22.17
2022-12-06T14:28:42.361Z,22.00
2022-12-06T14:31:21.022Z,22.10
2022-12-06T14:33:51.967Z,21.40
2022-12-06T14:36:24.997Z,21.00
2022-12-06T14:39:02.436Z,21.60
2022-12-06T14:41:54.221Z,21.40
2022-12-06T14:44:28.550Z,21.57
2022-12-06T14:46:57.877Z,21.80
2022-12-06T14:49:46.862Z,22.90
2022-12-06T14:52:19.972Z,24.07
2022-12-06T14:54:49.871Z,25.70
2022-12-06T14:57:28.716Z,27.70
2022-12-06T15:00:27.039Z,29.70
2022-12-06T15:03:22.917Z,30.13
2022-12-06T15:06:09.836Z,32.90
2022-12-06T15:08:39.396Z,33.70
2022-12-06T15:11:43.156Z,36.27
2022-12-06T15:14:19.199Z,39.87
2022-12-06T15:16:59.046Z,39.37
2022-12-06T15:19:27.749Z,43.80
2022-12-06T15:21:57.389Z,44.57
2022-12-06T15:24:27.293Z,44.80
2022-12-06T15:26:55.689Z,45.37
2022-12-06T15:29:24.693Z,47.80
2022-12-06T15:31:55.026Z,47.80
2022-12-06T15:34:26.202Z,48.30
2022-12-06T15:37:15.312Z,49.67
2022-12-06T15:39:45.121Z,50.00
2022-12-06T15:42:19.646Z,50.43
2022-12-06T15:44:49.696Z,55.57
2022-12-06T15:47:19.653Z,53.77
2022-12-06T15:49:50.936Z,54.23
2022-12-06T15:52:23.141Z,57.63
2022-12-06T15:54:53.124Z,56.40
2022-12-06T15:57:21.372Z,55.27
2022-12-06T15:59:49.640Z,58.27
2022-12-06T16:02:19.662Z,58.73
2022-12-06T16:04:50.560Z,58.67
2022-12-06T16:07:19.638Z,60.67
2022-12-06T16:09:48.309Z,59.47
2022-12-06T16:12:18.222Z,62.37
2022-12-06T16:14:46.441Z,60.67
2022-12-06T16:17:14.601Z,60.73
2022-12-06T16:20:00.429Z,59.43
2022-12-06T16:22:42.631Z,59.37
2022-12-06T16:25:14.286Z,57.80
2022-12-06T16:27:43.827Z,56.40
2022-12-06T16:30:12.786Z,57.67
2022-12-06T16:32:41.012Z,56.50
2022-12-06T16:35:09.509Z,57.00
2022-12-06T16:37:37.809Z,56.60
2022-12-06T16:40:08.193Z,57.17
2022-12-06T16:42:36.329Z,55.83
2022-12-06T16:45:06.571Z,55.60
2022-12-06T16:47:34.763Z,54.53
2022-12-06T16:50:02.983Z,56.67
2022-12-06T16:52:31.018Z,58.50
2022-12-06T16:54:59.254Z,57.57
2022-12-06T16:57:27.776Z,59.23
2022-12-06T16:59:55.982Z,60.87
2022-12-06T17:02:29.454Z,60.57
2022-12-06T17:05:01.197Z,60.00
2022-12-06T17:07:29.816Z,64.68
2022-12-06T17:09:58.004Z,66.63
2022-12-06T17:12:26.463Z,66.73
2022-12-06T17:14:55.844Z,66.00
2022-12-06T17:17:26.197Z,65.17
2022-12-06T17:19:56.313Z,70.65
2022-12-06T17:22:24.726Z,70.83
2022-12-06T17:24:53.154Z,66.67
2022-12-06T17:27:21.244Z,64.93
2022-12-06T17:29:49.463Z,61.70
2022-12-06T17:32:17.869Z,63.80
2022-12-06T17:34:46.028Z,65.77
2022-12-06T17:37:15.573Z,59.70
2022-12-06T17:39:43.716Z,65.47
2022-12-06T17:42:30.379Z,59.30
2022-12-06T17:45:00.112Z,61.10
2022-12-06T17:47:28.606Z,60.40
2022-12-06T17:49:56.722Z,59.10
2022-12-06T17:52:26.403Z,58.80
2022-12-06T17:54:54.556Z,59.40
2022-12-06T17:57:22.752Z,59.87
2022-12-06T17:59:50.931Z,62.70
2022-12-06T18:02:23.324Z,60.67
2022-12-06T18:04:52.621Z,59.87
2022-12-06T18:07:21.196Z,63.67
2022-12-06T18:09:50.870Z,65.90
2022-12-06T18:12:19.065Z,65.57
2022-12-06T18:14:47.355Z,66.17
2022-12-06T18:17:15.482Z,67.10
2022-12-06T18:19:46.733Z,66.30
2022-12-06T18:22:15.435Z,70.47
2022-12-06T18:24:44.691Z,70.00
2022-12-06T18:27:14.347Z,71.57
2022-12-06T18:29:42.615Z,70.90
2022-12-06T18:32:10.992Z,73.40
2022-12-06T18:34:39.439Z,73.50
2022-12-06T18:37:07.530Z,73.07
2022-12-06T18:39:36.083Z,70.73
2022-12-06T18:42:04.261Z,70.60
2022-12-06T18:44:33.866Z,71.27
2022-12-06T18:47:02.226Z,68.57
2022-12-06T18:49:30.398Z,75.20
2022-12-06T18:51:58.662Z,72.10
2022-12-06T18:54:28.289Z,76.47
2022-12-06T18:56:58.987Z,78.30
2022-12-06T18:59:27.884Z,78.37
2022-12-06T19:01:57.950Z,76.90
2022-12-06T19:04:26.176Z,75.33
2022-12-06T19:06:54.439Z,77.83
2022-12-06T19:09:23.500Z,76.40
2022-12-06T19:11:51.761Z,77.60
2022-12-06T19:14:19.948Z,76.17
2022-12-06T19:16:49.855Z,76.13
2022-12-06T19:19:20.905Z,76.23
2022-12-06T19:21:50.422Z,77.77
2022-12-06T19:24:21.614Z,77.97
2022-12-06T19:26:51.153Z,74.50
2022-12-06T19:29:19.851Z,76.10
2022-12-06T19:31:48.693Z,78.53
2022-12-06T19:34:19.964Z,76.87
2022-12-06T19:36:50.452Z,76.20
2022-12-06T19:39:19.614Z,74.87
2022-12-06T19:42:05.601Z,76.93
2022-12-06T19:44:33.900Z,75.13
2022-12-06T19:47:02.158Z,77.63
2022-12-06T19:49:32.050Z,78.50
2022-12-06T19:52:00.378Z,74.30
2022-12-06T19:54:30.796Z,77.53
2022-12-06T19:57:00.408Z,78.53
2022-12-06T19:59:30.375Z,76.90
2022-12-06T20:01:59.157Z,79.13
2022-12-06T20:04:29.070Z,75.23
2022-12-06T20:06:59.301Z,77.20
2022-12-06T20:09:30.884Z,76.83
2022-12-06T20:12:04.307Z,77.37
2022-12-06T20:14:37.010Z,77.00
2022-12-06T20:17:07.468Z,77.13
2022-12-06T20:19:35.713Z,79.87
2022-12-06T20:22:05.360Z,82.67
2022-12-06T20:24:33.621Z,81.30
2022-12-06T20:27:02.811Z,84.00
2022-12-06T20:29:32.595Z,85.50
2022-12-06T20:32:01.832Z,84.47
2022-12-06T20:34:34.315Z,82.20
2022-12-06T20:37:04.421Z,82.37
2022-12-06T20:39:35.643Z,83.97
2022-12-06T20:42:05.779Z,87.03
2022-12-06T20:44:34.724Z,85.77
2022-12-06T20:47:02.967Z,77.50
2022-12-06T20:49:31.447Z,78.50
2022-12-06T20:52:02.156Z,81.07
2022-12-06T20:54:30.488Z,79.80
2022-12-06T20:57:00.189Z,79.77
2022-12-06T20:59:29.499Z,79.20
2022-12-06T21:01:57.863Z,79.93
2022-12-06T21:04:26.665Z,81.30
2022-12-06T21:06:54.924Z,79.27
2022-12-06T21:09:23.904Z,80.23
2022-12-06T21:11:52.087Z,79.97
2022-12-06T21:14:22.215Z,75.27
2022-12-06T21:16:50.774Z,79.27
2022-12-06T21:19:20.532Z,79.07
2022-12-06T21:21:50.518Z,81.60
2022-12-06T21:24:21.531Z,77.87
2022-12-06T21:26:50.233Z,79.57
2022-12-06T21:29:21.679Z,79.27
2022-12-06T21:31:53.381Z,81.67
2022-12-06T21:34:21.627Z,82.00
2022-12-06T21:36:49.840Z,79.20
2022-12-06T21:39:17.952Z,82.17
2022-12-06T21:41:46.227Z,81.67
2022-12-06T21:44:14.441Z,80.00
2022-12-06T21:46:42.831Z,80.33
2022-12-06T21:49:12.918Z,80.87
2022-12-06T21:51:41.135Z,86.13
2022-12-06T21:54:09.480Z,80.07
2022-12-06T21:56:38.311Z,84.03
2022-12-06T21:59:06.380Z,84.60
2022-12-06T22:01:34.516Z,82.97
2022-12-06T22:04:04.603Z,80.70
2022-12-06T22:06:35.525Z,81.27
2022-12-06T22:09:06.330Z,80.80
2022-12-06T22:11:36.183Z,77.53
2022-12-06T22:14:05.777Z,77.77
2022-12-06T22:16:33.975Z,77.73
2022-12-06T22:19:02.468Z,73.77
2022-12-06T22:21:33.545Z,77.47
2022-12-06T22:24:01.898Z,75.30
2022-12-06T22:26:31.784Z,76.27
2022-12-06T22:29:01.060Z,74.90
2022-12-06T22:31:31.240Z,75.90
2022-12-06T22:33:59.989Z,76.83
2022-12-06T22:36:30.375Z,79.47
2022-12-06T22:39:02.160Z,75.40
2022-12-06T22:41:30.901Z,76.67
2022-12-06T22:44:01.126Z,79.90
2022-12-06T22:46:30.295Z,74.57
2022-12-06T22:48:59.769Z,76.20
2022-12-06T22:51:29.601Z,75.97
2022-12-06T22:54:00.687Z,78.43
2022-12-06T22:56:30.785Z,79.47
2022-12-06T22:59:00.358Z,79.30
2022-12-06T23:01:31.072Z,82.60
2022-12-06T23:04:01.831Z,84.83
2022-12-06T23:06:30.516Z,84.63
2022-12-06T23:09:00.072Z,85.97
2022-12-06T23:11:30.166Z,90.23
2022-12-06T23:13:59.608Z,86.73
2022-12-06T23:16:29.436Z,89.00
2022-12-06T23:18:58.405Z,89.10
2022-12-06T23:21:28.328Z,86.30
2022-12-06T23:24:00.328Z,88.47
2022-12-06T23:26:30.732Z,88.00
2022-12-06T23:28:58.875Z,84.50
2022-12-06T23:31:29.484Z,86.80
2022-12-06T23:33:59.652Z,88.10
2022-12-06T23:36:29.341Z,84.40
2022-12-06T23:38:59.029Z,84.20
2022-12-06T23:41:28.776Z,85.07
2022-12-06T23:43:58.159Z,90.10
2022-12-06T23:46:28.807Z,88.87
2022-12-06T23:48:57.749Z,88.90
2022-12-06T23:51:27.902Z,91.83
2022-12-06T23:53:57.943Z,93.40
2022-12-06T23:56:29.212Z,91.07
2022-12-06T23:58:58.043Z,88.43
